Airfield :
LOGIN :

Register | Disclaimer

   EN    FR    IT 

 










Legend :    VFR   Marginal VFR   IFR   Intensive IFR   Very Intensive IFR
Visi :
Ceiling :
>= 8 km
>= 3000ft
5 to 8 km
1000 to 3000 ft
1500m to 5 km
500 to 1000 ft
800 to 1500m
200 to 500 ft
< 800m
< 200 ft
Symbols :   Thunderstorms  Fog  Heavy snow  Heavy precipitations  Wind > 20 kt
SIGMETs :     Misc.  Thunderstorms  Icing  Turbulence  Mountain Waves  Volcanic Ashes







- Airport Elevation : 46 ft
- IATA code : GPA


LGRX - Araxos

CURRENT METAR :
  • 221020Z 00000KT 9999 BKN090 19/14 Q1016

EXPIRED METARs :
  • 220950Z 00000KT 9999 BKN090 19/13 Q1016
  • 220920Z 00000KT 9999 BKN090 19/14 Q1016
  • 220850Z 00000KT 9999 BKN090 19/13 Q1017 RMK BKN190 BLU
  • 220820Z 00000KT 9999 SCT090 19/13 Q1016
  • 220750Z 00000KT 9999 SCT090 20/12 Q1016 RMK BKN190 BLU

TAF TAF LGRX
Valid from the 22 at 09:00 until the 22 at 18:00 UTC


220800Z 2209/2218 28007KT 9999 FEW020 SCT080
BECMG 2210/2212 FEW020 BKN080
PROB30
TEMPO 2212/2218 7000 RA
TEMPO 2216/2218 18007KT
No reported NOTAMs for that airfield.



MET'MAP, your aeronautical weather chart ! - Copyright ORBIFLY December 2007 - Disclaimer

ORBIFLY MET'MAP TEAM :

Programming & Development : Alexandra Zaïnal
Concept & Development : Baudouin d'Aumeries
Co-Development & Prog : Marc-Olivier Méhu
Technical & hardware support : Manuel Goepfert

Contact : metmap@orbifly.com




SOURCES & CREDITS :

   NOAA